Terminal Aerodrome Forecast
Issued by NWS Corpus Christi, TX

Current Version | Previous Version | Text Only | Print | Product List | Glossary On
Versions: 1 2 3 4 5 6 7 8 9 10 11 12 13 14 15 16 17
000
FTUS44 KCRP 262300
TAFCRP
TAF
KCRP 262337Z 2700/2724 08018KT P6SM FEW035 SCT250
     FM270500 04013KT P6SM FEW030
     FM270700 04016KT P6SM SCT024
     FM270900 03014KT P6SM BKN022
     FM271400 03015G25KT P6SM OVC012
     FM271900 06015G25KT P6SM OVC012=

USA.gov is the U.S. government's official web portal to all federal, state and local government web resources and services.